CDT,Max TemperatureF,Mean TemperatureF,Min TemperatureF,Max Dew PointF,MeanDew PointF,Min DewpointF,Max Humidity, Mean Humidity, Min Humidity, Max Sea Level PressureIn, Mean Sea Level PressureIn, Min Sea Level PressureIn, Max VisibilityMiles, Mean VisibilityMiles, Min VisibilityMiles, Max Wind SpeedMPH, Mean Wind SpeedMPH, Max Gust SpeedMPH,PrecipitationIn, CloudCover, Events, WindDirDegrees
2013-8-1,77,64,51,59,56,52,100,83,50,30.04,29.99,29.89,10,9,1,14,6,20,0.00,1,,282
2013-8-2,79,66,53,64,57,52,100,87,44,30.02,29.88,29.83,10,7,0,13,4,20,0.01,1,Fog-Rain,288
2013-8-3,77,60,44,57,50,45,100,83,42,30.18,30.09,30.03,10,7,0,13,4,,0.00,0,Fog,308
2013-8-4,75,56,41,57,48,41,100,93,50,30.27,30.18,30.10,10,5,0,7,3,,0.00,1,Fog,286
2013-8-5,71,60,48,66,59,48,100,92,73,30.10,29.96,29.86,10,9,0,10,5,,0.05,5,Fog-Rain,156
2013-8-6,82,71,60,68,65,60,100,88,54,29.87,29.83,29.76,10,8,0,25,4,43,0.00,6,Fog-Rain-Thunderstorm,218
2013-8-7,76,64,51,64,60,51,100,92,59,30.04,29.84,29.76,10,7,0,16,8,32,0.56,3,Fog-Rain-Thunderstorm,293
2013-8-8,78,60,42,61,50,43,100,90,47,30.08,30.04,30.01,10,4,0,10,1,,0.00,2,Fog,316
2013-8-9,78,67,54,63,59,53,100,72,50,30.11,30.02,29.98,10,10,10,13,5,20,0.00,3,,290
2013-8-10,74,60,48,57,52,48,100,86,46,30.19,30.14,30.12,10,7,1,8,4,,0.00,3,,295
2013-8-11,68,57,46,64,60,46,100,97,86,30.15,30.09,30.04,10,6,0,7,2,,0.31,5,Fog-Rain,129
2013-8-12,79,66,55,66,58,54,100,94,50,30.06,30.01,29.95,10,3,0,12,2,,0.00,4,Fog,307
2013-8-13,73,56,41,54,47,41,100,85,46,30.21,30.14,30.07,10,7,0,10,4,,0.00,2,Fog,315
2013-8-14,74,56,39,57,45,39,100,93,47,30.25,30.21,30.14,10,4,0,5,1,,0.00,3,Fog,297
2013-8-15,78,63,48,60,54,48,100,84,41,30.16,30.14,30.10,10,8,0,8,1,,0.00,3,Fog,275
2013-8-16,81,61,42,63,49,43,100,93,42,30.22,30.17,30.14,10,4,0,7,0,,0.00,0,Fog,301
2013-8-17,82,63,44,63,50,44,100,91,37,30.26,30.21,30.17,10,5,0,6,1,,0.00,0,Fog,129
2013-8-18,81,64,48,59,54,48,100,86,42,30.22,30.17,30.09,10,8,0,10,3,,0.00,1,Fog-Rain,124
2013-8-19,81,66,51,64,58,52,100,84,54,30.10,30.06,30.01,10,9,5,15,4,20,0.00,3,,155
2013-8-20,86,72,59,68,64,59,100,73,51,30.04,30.00,29.96,10,10,8,13,6,20,0.00,3,,171
2013-8-21,89,78,66,72,69,64,100,82,55,30.02,29.98,29.91,10,8,1,15,7,21,0.00,0,,226
2013-8-22,83,70,56,68,63,57,100,94,42,30.14,30.05,30.01,10,4,0,12,2,,0.00,2,Fog-Thunderstorm,309
2013-8-23,83,67,52,61,56,53,100,89,39,30.21,30.15,30.12,10,6,1,9,4,,0.00,1,,127
2013-8-24,84,68,52,69,61,52,100,78,50,30.24,30.17,30.11,10,10,2,13,6,,0.00,2,,142
2013-8-25,91,82,73,72,69,65,83,66,49,30.15,30.09,30.04,10,10,10,18,9,24,0.00,0,,199
2013-8-26,92,82,74,75,70,63,79,67,55,30.12,30.01,29.93,10,10,10,17,10,24,0.00,3,,198
2013-8-27,93,84,75,75,72,70,93,69,52,29.92,29.86,29.80,10,10,10,13,8,17,0.00,3,,244
2013-8-28,85,76,69,75,72,68,100,93,62,30.06,29.95,29.87,10,8,0,8,3,,0.00,5,Fog,42
2013-8-29,89,74,58,73,64,58,100,92,55,30.09,30.05,29.94,10,4,0,12,2,,0.00,1,Fog,136
2013-8-30,90,79,69,75,70,64,94,76,53,29.92,29.86,29.82,10,10,5,15,10,21,0.00,2,,302
2013-8-31,85,68,53,65,60,54,100,83,42,29.91,29.87,29.79,10,7,0,8,3,,0.00,1,Fog-Rain,94